createdAt,value
2022-09-26T00:01:07.699Z,1.10
2022-09-26T00:06:04.878Z,1.02
2022-09-26T00:08:31.664Z,1.33
2022-09-26T00:13:28.633Z,1.00
2022-09-26T00:15:56.167Z,0.82
2022-09-26T00:18:23.231Z,1.00
2022-09-26T00:20:49.863Z,0.93
2022-09-26T00:23:16.715Z,0.80
2022-09-26T00:25:51.484Z,0.70
2022-09-26T00:28:18.920Z,1.00
2022-09-26T00:30:45.895Z,1.00
2022-09-26T00:35:38.200Z,0.90
2022-09-26T00:38:05.421Z,1.10
2022-09-26T00:45:24.895Z,1.08
2022-09-26T00:47:59.745Z,1.08
2022-09-26T00:50:30.574Z,1.38
2022-09-26T00:53:02.798Z,1.00
2022-09-26T00:55:31.533Z,1.13
2022-09-26T01:00:30.361Z,1.00
2022-09-26T01:02:57.558Z,1.40
2022-09-26T01:05:24.278Z,0.85
2022-09-26T01:07:52.030Z,1.23
2022-09-26T01:16:05.871Z,0.93
2022-09-26T01:18:32.588Z,0.90
2022-09-26T01:21:18.078Z,0.70
2022-09-26T01:23:53.938Z,0.88
2022-09-26T01:28:55.430Z,0.95
2022-09-26T01:31:22.135Z,1.58
2022-09-26T01:36:41.119Z,1.10
2022-09-26T01:39:10.564Z,1.20
2022-09-26T01:41:55.890Z,1.52
2022-09-26T01:44:41.087Z,0.90
2022-09-26T01:47:08.115Z,1.05
2022-09-26T01:49:34.682Z,1.10
2022-09-26T01:52:04.137Z,0.90
2022-09-26T01:54:39.270Z,0.90
2022-09-26T01:57:08.327Z,0.90
2022-09-26T01:59:39.524Z,1.25
2022-09-26T02:02:09.957Z,1.15
2022-09-26T02:04:38.878Z,1.05
2022-09-26T02:07:25.048Z,1.00
2022-09-26T02:09:53.497Z,1.40
2022-09-26T02:12:23.767Z,1.02
2022-09-26T02:19:52.018Z,1.00
2022-09-26T02:22:19.163Z,1.00
2022-09-26T02:24:45.918Z,1.20
2022-09-26T02:27:12.559Z,1.20
2022-09-26T02:29:40.514Z,1.02
2022-09-26T02:32:16.124Z,1.25
2022-09-26T02:34:44.958Z,1.40
2022-09-26T02:37:13.461Z,1.10
2022-09-26T02:39:40.920Z,1.23
2022-09-26T02:42:11.065Z,1.85
2022-09-26T02:44:40.836Z,1.02
2022-09-26T02:47:16.280Z,1.27
2022-09-26T02:49:55.032Z,1.25
2022-09-26T02:52:39.966Z,1.30
2022-09-26T02:55:19.795Z,1.10
2022-09-26T02:58:06.620Z,1.23
2022-09-26T03:00:45.619Z,1.20
2022-09-26T03:03:23.511Z,1.10
2022-09-26T03:05:52.145Z,1.10
2022-09-26T03:08:24.557Z,1.38
2022-09-26T03:10:52.143Z,1.40
2022-09-26T03:13:19.241Z,1.13
2022-09-26T03:15:49.120Z,1.42
2022-09-26T03:20:44.996Z,1.10
2022-09-26T03:23:11.981Z,1.50
2022-09-26T03:25:38.871Z,1.33
2022-09-26T03:28:10.563Z,1.40
2022-09-26T03:30:37.299Z,1.30
2022-09-26T03:33:03.968Z,1.80
2022-09-26T03:35:40.182Z,1.48
2022-09-26T03:38:10.111Z,1.13
2022-09-26T03:40:42.230Z,1.17
2022-09-26T03:45:37.893Z,1.23
2022-09-26T03:48:17.410Z,1.30
2022-09-26T03:50:44.075Z,1.70
2022-09-26T03:53:10.678Z,1.55
2022-09-26T03:55:37.279Z,1.67
2022-09-26T03:58:04.384Z,1.73
2022-09-26T04:00:31.191Z,1.55
2022-09-26T04:05:27.006Z,1.63
2022-09-26T04:07:57.361Z,1.70
2022-09-26T04:10:24.255Z,1.70
2022-09-26T04:12:51.082Z,1.70
2022-09-26T04:15:17.969Z,2.00
2022-09-26T04:17:44.580Z,1.98
2022-09-26T04:22:37.682Z,2.25
2022-09-26T04:25:04.899Z,1.80
2022-09-26T04:34:51.335Z,2.05
2022-09-26T04:37:21.227Z,1.90
2022-09-26T04:39:49.438Z,1.90
2022-09-26T04:44:42.559Z,2.25
2022-09-26T04:47:09.678Z,2.00
2022-09-26T04:50:02.501Z,1.88
2022-09-26T04:52:30.726Z,1.85
2022-09-26T04:54:57.828Z,2.03
2022-09-26T04:57:24.683Z,1.65
2022-09-26T04:59:52.412Z,2.00
2022-09-26T05:02:20.855Z,2.05
2022-09-26T05:04:48.568Z,1.80
2022-09-26T05:07:18.616Z,1.80
2022-09-26T05:09:45.596Z,1.85
2022-09-26T05:12:13.598Z,1.92
2022-09-26T05:14:46.195Z,1.90
2022-09-26T05:19:43.354Z,2.10
2022-09-26T05:22:22.437Z,2.05
2022-09-26T05:27:33.262Z,1.58
2022-09-26T05:30:00.057Z,2.42
2022-09-26T05:34:56.209Z,1.90
2022-09-26T05:37:24.972Z,1.80
2022-09-26T05:40:10.730Z,2.17
2022-09-26T05:42:41.910Z,2.67
2022-09-26T05:45:09.417Z,2.20
2022-09-26T05:50:10.032Z,2.10
2022-09-26T05:55:05.364Z,1.80
2022-09-26T05:57:52.924Z,2.45
2022-09-26T06:02:45.349Z,1.52
2022-09-26T06:05:17.043Z,1.77
2022-09-26T06:10:09.220Z,1.90
2022-09-26T06:15:19.683Z,1.50
2022-09-26T06:17:48.245Z,1.80
2022-09-26T06:25:07.149Z,1.58
2022-09-26T06:30:06.635Z,1.58
2022-09-26T06:32:35.094Z,1.80
2022-09-26T06:37:50.082Z,1.40
2022-09-26T06:40:17.696Z,1.52
2022-09-26T06:45:12.701Z,1.33
2022-09-26T06:48:01.528Z,1.70
2022-09-26T06:50:39.815Z,1.50
2022-09-26T07:02:53.822Z,1.20
2022-09-26T07:05:43.961Z,1.58
2022-09-26T07:08:11.484Z,1.42
2022-09-26T07:10:38.611Z,1.35
2022-09-26T07:18:02.590Z,2.60
2022-09-26T07:20:47.970Z,1.20
2022-09-26T07:23:33.363Z,1.85
2022-09-26T07:31:06.486Z,1.80
2022-09-26T07:33:43.308Z,1.65
2022-09-26T07:36:11.832Z,1.55
2022-09-26T07:38:39.351Z,1.80
2022-09-26T07:41:06.220Z,2.10
2022-09-26T07:44:26.776Z,1.60
2022-09-26T07:49:23.934Z,1.40
2022-09-26T07:51:54.481Z,1.10
2022-09-26T07:56:48.893Z,1.00
2022-09-26T07:59:35.847Z,1.50
2022-09-26T08:02:03.112Z,1.67
2022-09-26T08:04:29.920Z,1.20
2022-09-26T08:06:57.258Z,1.60
2022-09-26T08:11:49.675Z,1.40
2022-09-26T08:14:33.855Z,1.55
2022-09-26T08:17:00.441Z,1.58
2022-09-26T08:19:27.755Z,1.50
2022-09-26T08:21:54.513Z,1.55
2022-09-26T08:26:46.633Z,1.50
2022-09-26T08:29:18.190Z,1.38
2022-09-26T08:31:46.299Z,1.48
2022-09-26T08:34:13.144Z,1.40
2022-09-26T08:36:40.549Z,1.60
2022-09-26T08:39:07.275Z,1.33
2022-09-26T08:41:44.386Z,1.05
2022-09-26T08:45:28.409Z,1.70
2022-09-26T08:48:13.798Z,1.10
2022-09-26T08:50:56.955Z,1.48
2022-09-26T08:53:28.514Z,1.40
2022-09-26T08:55:58.438Z,1.20
2022-09-26T08:58:29.087Z,0.90
2022-09-26T09:00:59.120Z,1.00
2022-09-26T09:03:33.910Z,1.10
2022-09-26T09:06:11.391Z,0.77
2022-09-26T09:08:44.578Z,0.68
2022-09-26T09:19:38.443Z,0.63
2022-09-26T09:22:16.628Z,0.80
2022-09-26T09:25:03.348Z,0.52
2022-09-26T09:27:53.171Z,0.70
2022-09-26T09:30:32.680Z,0.55
2022-09-26T09:39:06.186Z,0.60
2022-09-26T09:41:38.952Z,0.40
2022-09-26T09:44:09.955Z,0.40
2022-09-26T09:46:42.669Z,0.60
2022-09-26T09:51:41.112Z,0.43
2022-09-26T09:59:14.998Z,0.40
2022-09-26T10:02:11.811Z,0.50
2022-09-26T10:04:44.385Z,0.55
2022-09-26T10:07:10.943Z,0.40
2022-09-26T10:12:17.192Z,0.95
2022-09-26T10:15:05.259Z,0.50
2022-09-26T10:18:22.833Z,0.50
2022-09-26T10:21:16.467Z,0.50
2022-09-26T10:23:46.867Z,0.30
2022-09-26T10:26:16.658Z,0.40
2022-09-26T10:28:45.311Z,0.40
2022-09-26T10:31:21.369Z,0.30
2022-09-26T10:34:08.319Z,0.30
2022-09-26T10:36:36.760Z,0.40
2022-09-26T10:39:36.395Z,0.52
2022-09-26T10:42:04.259Z,0.95
2022-09-26T10:44:34.172Z,0.40
2022-09-26T10:47:08.435Z,1.70
2022-09-26T10:49:56.588Z,1.70
2022-09-26T10:52:28.618Z,0.80
2022-09-26T10:54:59.094Z,1.10
2022-09-26T10:57:28.278Z,1.00
2022-09-26T11:10:13.979Z,0.90
2022-09-26T11:12:58.100Z,1.10
2022-09-26T11:15:24.996Z,0.88
2022-09-26T11:17:52.859Z,1.10
2022-09-26T11:20:22.494Z,1.08
2022-09-26T11:22:56.065Z,1.10
2022-09-26T11:25:27.858Z,2.20
2022-09-26T11:32:56.453Z,1.75
2022-09-26T11:38:24.030Z,1.43
2022-09-26T11:40:54.166Z,1.65
2022-09-26T11:43:35.911Z,1.50
2022-09-26T11:49:04.511Z,2.20
2022-09-26T11:52:02.416Z,1.92
2022-09-26T11:54:47.396Z,1.80
2022-09-26T11:57:34.311Z,2.13
2022-09-26T12:02:47.442Z,2.42
2022-09-26T12:05:27.313Z,2.55
2022-09-26T12:08:06.240Z,2.47
2022-09-26T12:10:32.813Z,2.20
2022-09-26T12:13:12.704Z,2.28
2022-09-26T12:15:44.838Z,2.30
2022-09-26T12:18:15.805Z,2.55
2022-09-26T12:21:01.018Z,2.60
2022-09-26T12:23:33.860Z,2.33
2022-09-26T12:28:49.177Z,2.90
2022-09-26T12:31:34.691Z,2.95
2022-09-26T12:34:02.468Z,2.40
2022-09-26T12:36:40.407Z,3.30
2022-09-26T12:42:06.383Z,4.95
2022-09-26T12:44:45.459Z,3.38
2022-09-26T12:47:18.348Z,3.38
2022-09-26T12:52:27.420Z,3.05
2022-09-26T12:55:17.596Z,2.75
2022-09-26T12:57:48.338Z,3.30
2022-09-26T13:03:07.912Z,2.90
2022-09-26T13:05:55.669Z,3.93
2022-09-26T13:08:31.948Z,4.28
2022-09-26T13:13:24.856Z,3.22
2022-09-26T13:15:55.223Z,2.95
2022-09-26T13:18:29.004Z,3.38
2022-09-26T13:21:01.501Z,3.00
2022-09-26T13:31:12.649Z,3.65
2022-09-26T13:34:01.339Z,3.13
2022-09-26T13:39:06.314Z,3.70
2022-09-26T13:41:48.611Z,2.85
2022-09-26T13:44:15.375Z,4.18
2022-09-26T13:46:53.970Z,3.78
2022-09-26T13:49:20.565Z,3.53
2022-09-26T13:51:50.943Z,4.38
2022-09-26T14:02:05.745Z,3.80
2022-09-26T14:12:49.824Z,3.58
2022-09-26T14:15:24.276Z,4.35
2022-09-26T14:17:50.909Z,3.50
2022-09-26T14:20:27.622Z,4.13
2022-09-26T14:22:54.918Z,5.22
2022-09-26T14:25:40.236Z,3.65
2022-09-26T14:28:19.927Z,4.40
2022-09-26T14:31:05.118Z,3.70
2022-09-26T14:38:41.402Z,4.10
2022-09-26T14:41:16.747Z,3.80
2022-09-26T14:43:43.614Z,3.10
2022-09-26T14:46:18.573Z,3.28
2022-09-26T14:51:11.431Z,4.43
2022-09-26T14:53:40.723Z,5.10
2022-09-26T14:59:16.084Z,4.50
2022-09-26T15:01:44.090Z,4.63
2022-09-26T15:04:16.357Z,4.05
2022-09-26T15:06:44.079Z,4.13
2022-09-26T15:09:11.940Z,4.53
2022-09-26T15:11:46.314Z,3.97
2022-09-26T15:14:33.184Z,7.95
2022-09-26T15:19:35.387Z,4.93
2022-09-26T15:27:12.113Z,6.13
2022-09-26T15:29:48.851Z,5.30
2022-09-26T15:32:19.463Z,6.47
2022-09-26T15:34:47.041Z,4.15
2022-09-26T15:37:22.084Z,5.68
2022-09-26T15:39:49.089Z,5.30
2022-09-26T15:45:00.797Z,5.22
2022-09-26T15:50:10.328Z,4.57
2022-09-26T15:52:46.576Z,4.90
2022-09-26T16:00:13.299Z,4.53
2022-09-26T16:05:10.746Z,4.78
2022-09-26T16:07:41.359Z,5.03
2022-09-26T16:15:17.856Z,4.63
2022-09-26T16:17:51.506Z,5.57
2022-09-26T16:20:18.135Z,5.32
2022-09-26T16:22:45.648Z,5.45
2022-09-26T16:25:15.404Z,5.50
2022-09-26T16:30:30.772Z,4.88
2022-09-26T16:33:06.951Z,4.43
2022-09-26T16:35:35.415Z,4.22
2022-09-26T16:38:20.540Z,4.00
2022-09-26T16:40:54.453Z,3.60
2022-09-26T16:43:29.423Z,3.65
2022-09-26T16:46:09.317Z,2.80
2022-09-26T16:48:51.029Z,4.45
2022-09-26T16:51:21.317Z,3.78
2022-09-26T16:53:54.044Z,3.53
2022-09-26T16:58:50.049Z,4.00
2022-09-26T17:01:35.871Z,3.90
2022-09-26T17:04:02.799Z,3.15
2022-09-26T17:06:30.951Z,3.13
2022-09-26T17:13:53.739Z,4.70
2022-09-26T17:16:20.743Z,4.10
2022-09-26T17:18:47.842Z,4.00
2022-09-26T17:21:14.817Z,4.43
2022-09-26T17:26:08.774Z,4.10
2022-09-26T17:28:39.422Z,4.60
2022-09-26T17:31:07.918Z,4.55
2022-09-26T17:33:40.735Z,4.78
2022-09-26T17:36:11.137Z,8.50
2022-09-26T17:38:40.455Z,8.30
2022-09-26T17:41:07.453Z,6.90
2022-09-26T17:46:01.369Z,8.07
2022-09-26T17:48:29.271Z,6.50
2022-09-26T17:50:56.278Z,8.50
2022-09-26T17:58:15.584Z,6.00
2022-09-26T18:05:56.115Z,4.18
2022-09-26T18:08:28.297Z,4.18
2022-09-26T18:13:26.404Z,9.90
2022-09-26T18:15:54.202Z,10.15
2022-09-26T18:20:49.162Z,10.18
2022-09-26T18:25:53.353Z,5.20
2022-09-26T18:28:21.275Z,6.18
2022-09-26T18:35:59.491Z,4.68
2022-09-26T18:38:31.413Z,4.70
2022-09-26T18:45:54.000Z,4.43
2022-09-26T19:01:16.154Z,3.00
2022-09-26T19:03:46.143Z,3.03
2022-09-26T19:06:21.046Z,3.53
2022-09-26T19:08:53.291Z,3.70
2022-09-26T19:18:42.596Z,3.83
2022-09-26T19:21:36.499Z,4.07
2022-09-26T19:24:10.270Z,3.90
2022-09-26T19:27:06.689Z,3.80
2022-09-26T19:29:43.699Z,3.05
2022-09-26T19:35:23.676Z,2.95
2022-09-26T19:37:50.812Z,3.22
2022-09-26T19:40:18.922Z,2.53
2022-09-26T19:45:12.717Z,2.83
2022-09-26T19:47:43.040Z,3.17
2022-09-26T19:52:40.786Z,3.35
2022-09-26T19:55:17.435Z,3.28
2022-09-26T19:57:44.134Z,3.50
2022-09-26T20:00:12.455Z,3.25
2022-09-26T20:02:39.368Z,3.42
2022-09-26T20:05:32.531Z,3.00
2022-09-26T20:07:59.113Z,2.88
2022-09-26T20:10:25.859Z,2.75
2022-09-26T20:12:52.662Z,2.95
2022-09-26T20:17:48.414Z,2.70
2022-09-26T20:20:20.056Z,2.65
2022-09-26T20:27:42.436Z,2.08
2022-09-26T20:40:18.774Z,2.17
2022-09-26T20:42:47.429Z,2.15
2022-09-26T20:47:45.146Z,2.25
2022-09-26T20:50:16.315Z,1.90
2022-09-26T20:52:43.011Z,1.75
2022-09-26T20:55:14.619Z,1.63
2022-09-26T20:57:41.971Z,1.67
2022-09-26T21:02:39.813Z,1.80
2022-09-26T21:05:14.331Z,1.65
2022-09-26T21:10:26.029Z,2.38
2022-09-26T21:17:45.463Z,2.28
2022-09-26T21:20:20.486Z,2.05
2022-09-26T21:23:03.566Z,2.17
2022-09-26T21:30:33.646Z,1.80
2022-09-26T21:33:00.501Z,1.85
2022-09-26T21:35:28.897Z,2.05
2022-09-26T21:37:56.587Z,2.05
2022-09-26T21:40:26.219Z,2.22
2022-09-26T21:42:54.769Z,2.00
2022-09-26T21:45:27.090Z,2.63
2022-09-26T21:47:55.355Z,1.90
2022-09-26T21:50:23.155Z,1.98
2022-09-26T21:52:51.268Z,2.17
2022-09-26T21:55:21.045Z,1.83
2022-09-26T21:57:49.160Z,1.92
2022-09-26T22:00:15.962Z,2.65
2022-09-26T22:07:53.320Z,1.67
2022-09-26T22:10:20.023Z,2.38
2022-09-26T22:12:47.034Z,2.00
2022-09-26T22:15:13.644Z,1.77
2022-09-26T22:17:40.259Z,2.72
2022-09-26T22:20:07.076Z,2.25
2022-09-26T22:22:33.678Z,2.00
2022-09-26T22:27:29.615Z,2.10
2022-09-26T22:29:56.430Z,2.60
2022-09-26T22:37:15.152Z,1.73
2022-09-26T22:39:41.887Z,2.20
2022-09-26T22:44:34.325Z,1.88
2022-09-26T22:47:00.948Z,1.95
2022-09-26T22:49:27.538Z,2.53
2022-09-26T22:51:54.244Z,1.83
2022-09-26T22:54:20.882Z,1.90
2022-09-26T22:59:12.900Z,2.13
2022-09-26T23:01:39.697Z,1.95
2022-09-26T23:04:06.395Z,2.17
2022-09-26T23:06:33.078Z,2.17
2022-09-26T23:08:59.739Z,2.42
2022-09-26T23:13:52.738Z,2.40
2022-09-26T23:16:20.799Z,2.25
2022-09-26T23:18:47.950Z,2.33
2022-09-26T23:21:16.162Z,2.45
2022-09-26T23:23:44.410Z,3.35
2022-09-26T23:28:41.473Z,1.80
2022-09-26T23:31:09.637Z,2.05
2022-09-26T23:33:38.062Z,2.38
2022-09-26T23:36:05.418Z,1.95
2022-09-26T23:38:32.500Z,2.17
2022-09-26T23:40:59.218Z,1.98
2022-09-26T23:43:25.869Z,2.17
2022-09-26T23:45:52.581Z,1.88
2022-09-26T23:48:19.367Z,2.00
2022-09-26T23:50:47.162Z,1.92
2022-09-26T23:53:14.094Z,2.05
